createdAt,value
2023-03-02T00:03:38.055Z,60.20
2023-03-02T00:07:43.073Z,60.31
2023-03-02T00:11:46.832Z,59.83
2023-03-02T00:15:50.423Z,59.83
2023-03-02T00:19:53.780Z,60.01
2023-03-02T00:23:59.469Z,60.14
2023-03-02T00:28:02.332Z,59.50
2023-03-02T00:32:06.616Z,59.87
2023-03-02T00:36:17.360Z,59.99
2023-03-02T00:40:21.638Z,59.77
2023-03-02T00:44:24.861Z,59.91
2023-03-02T00:48:27.775Z,60.12
2023-03-02T00:52:31.391Z,60.07
2023-03-02T00:56:36.005Z,60.44
2023-03-02T01:00:39.280Z,60.61
2023-03-02T01:04:44.865Z,60.15
2023-03-02T01:08:47.790Z,60.14
2023-03-02T01:12:52.499Z,60.80
2023-03-02T01:16:55.697Z,60.73
2023-03-02T01:21:06.483Z,60.67
2023-03-02T01:25:09.581Z,60.51
2023-03-02T01:29:14.162Z,60.81
2023-03-02T01:33:17.131Z,61.03
2023-03-02T01:37:21.117Z,60.90
2023-03-02T01:41:24.017Z,61.16
2023-03-02T01:45:52.291Z,61.47
2023-03-02T01:49:59.638Z,61.26
2023-03-02T01:54:08.561Z,61.84
2023-03-02T01:58:18.094Z,61.73
2023-03-02T02:02:22.867Z,61.48
2023-03-02T02:06:27.705Z,61.55
2023-03-02T02:10:32.566Z,61.95
2023-03-02T02:14:35.456Z,61.71
2023-03-02T02:19:02.601Z,62.00
2023-03-02T02:23:20.669Z,61.94
2023-03-02T02:27:30.281Z,62.31
2023-03-02T02:31:38.910Z,62.35
2023-03-02T02:35:43.595Z,62.28
2023-03-02T02:39:49.153Z,62.33
2023-03-02T02:43:54.140Z,62.45
2023-03-02T02:47:58.193Z,62.32
2023-03-02T02:52:01.506Z,62.41
2023-03-02T02:56:07.926Z,62.71
2023-03-02T03:00:20.577Z,62.75
2023-03-02T03:04:25.647Z,62.76
2023-03-02T03:08:53.719Z,62.53
2023-03-02T03:12:57.221Z,62.12
2023-03-02T03:17:04.566Z,61.86
2023-03-02T03:21:07.769Z,62.23
2023-03-02T03:25:16.252Z,61.96
2023-03-02T03:29:20.297Z,62.02
2023-03-02T03:33:24.821Z,61.84
2023-03-02T03:37:28.002Z,61.84
2023-03-02T03:41:31.300Z,61.94
2023-03-02T03:45:34.439Z,61.25
2023-03-02T03:49:39.528Z,61.58
2023-03-02T03:53:42.696Z,61.65
2023-03-02T03:57:47.515Z,61.07
2023-03-02T04:01:53.256Z,61.43
2023-03-02T04:05:57.690Z,61.70
2023-03-02T04:10:04.035Z,61.56
2023-03-02T04:14:08.461Z,61.60
2023-03-02T04:18:11.769Z,62.16
2023-03-02T04:22:16.711Z,62.33
2023-03-02T04:26:19.777Z,61.82
2023-03-02T04:30:27.200Z,62.09
2023-03-02T04:34:30.163Z,62.39
2023-03-02T04:38:35.135Z,62.35
2023-03-02T04:42:38.333Z,62.10
2023-03-02T04:46:44.859Z,62.05
2023-03-02T04:50:47.920Z,62.48
2023-03-02T04:54:53.100Z,62.47
2023-03-02T04:58:56.641Z,62.36
2023-03-02T05:03:00.003Z,62.18
2023-03-02T05:07:03.150Z,62.45
2023-03-02T05:11:09.322Z,62.19
2023-03-02T05:15:13.111Z,62.41
2023-03-02T05:19:16.418Z,62.05
2023-03-02T05:23:25.829Z,62.65
2023-03-02T05:27:30.782Z,62.23
2023-03-02T05:31:36.229Z,62.54
2023-03-02T05:35:39.924Z,62.04
2023-03-02T05:39:42.818Z,62.51
2023-03-02T05:43:47.890Z,62.58
2023-03-02T05:47:50.973Z,62.07
2023-03-02T05:51:54.333Z,62.31
2023-03-02T05:55:57.478Z,62.41
2023-03-02T06:00:03.072Z,62.10
2023-03-02T06:04:06.480Z,62.02
2023-03-02T06:08:10.845Z,62.13
2023-03-02T06:12:13.792Z,62.55
2023-03-02T06:16:18.400Z,62.53
2023-03-02T06:20:21.585Z,62.39
2023-03-02T06:24:24.721Z,62.16
2023-03-02T06:28:28.400Z,61.95
2023-03-02T06:32:34.623Z,62.32
2023-03-02T06:36:39.081Z,62.02
2023-03-02T06:40:42.010Z,61.47
2023-03-02T06:44:45.182Z,60.64
2023-03-02T06:48:49.768Z,60.09
2023-03-02T06:52:53.422Z,60.48
2023-03-02T06:56:58.591Z,59.58
2023-03-02T07:01:01.880Z,59.78
2023-03-02T07:05:07.650Z,58.87
2023-03-02T07:09:11.201Z,59.27
2023-03-02T07:13:14.141Z,58.63
2023-03-02T07:17:17.392Z,57.92
2023-03-02T07:21:22.356Z,56.73
2023-03-02T07:25:25.820Z,56.60
2023-03-02T07:29:28.802Z,55.11
2023-03-02T07:33:32.066Z,54.12
2023-03-02T07:37:36.882Z,52.96
2023-03-02T07:41:39.831Z,53.92
2023-03-02T07:45:42.999Z,52.48
2023-03-02T07:49:45.952Z,53.09
2023-03-02T07:53:50.504Z,52.28
2023-03-02T07:57:56.389Z,52.31
2023-03-02T08:02:00.384Z,51.41
2023-03-02T08:06:07.047Z,52.83
2023-03-02T08:10:13.557Z,51.97
2023-03-02T08:14:16.655Z,51.99
2023-03-02T08:18:19.997Z,50.95
2023-03-02T08:22:22.963Z,51.06
2023-03-02T08:26:28.353Z,51.06
2023-03-02T08:30:31.368Z,49.62
2023-03-02T08:34:35.837Z,48.93
2023-03-02T08:38:38.885Z,50.39
2023-03-02T08:42:43.413Z,48.98
2023-03-02T08:46:46.523Z,48.22
2023-03-02T08:50:56.804Z,48.72
2023-03-02T08:54:59.673Z,48.50
2023-03-02T08:59:07.222Z,47.91
2023-03-02T09:03:10.121Z,47.35
2023-03-02T09:07:15.676Z,47.10
2023-03-02T09:11:25.164Z,47.91
2023-03-02T09:15:29.865Z,45.55
2023-03-02T09:19:43.266Z,46.69
2023-03-02T09:23:47.731Z,46.89
2023-03-02T09:27:50.655Z,47.30
2023-03-02T09:32:10.179Z,48.68
2023-03-02T09:36:19.824Z,46.88
2023-03-02T09:40:26.670Z,46.48
2023-03-02T09:45:03.157Z,48.83
2023-03-02T09:49:26.260Z,47.50
2023-03-02T09:53:45.672Z,47.27
2023-03-02T09:57:49.121Z,45.59
2023-03-02T10:01:57.417Z,45.88
2023-03-02T10:06:02.354Z,46.21
2023-03-02T10:10:19.125Z,45.13
2023-03-02T10:14:26.226Z,44.37
2023-03-02T10:18:35.499Z,45.00
2023-03-02T10:22:45.577Z,44.95
2023-03-02T10:26:51.985Z,44.50
2023-03-02T10:30:59.992Z,46.09
2023-03-02T10:35:14.830Z,45.19
2023-03-02T10:39:20.967Z,43.54
2023-03-02T10:43:32.742Z,45.21
2023-03-02T10:47:36.940Z,44.46
2023-03-02T10:51:39.996Z,45.12
2023-03-02T10:55:50.398Z,45.13
2023-03-02T10:59:55.126Z,43.86
2023-03-02T11:04:00.866Z,43.98
2023-03-02T11:08:06.380Z,43.50
2023-03-02T11:12:18.292Z,46.09
2023-03-02T11:16:28.565Z,44.53
2023-03-02T11:20:34.820Z,43.93
2023-03-02T11:24:43.101Z,43.57
2023-03-02T11:28:55.005Z,44.77
2023-03-02T11:33:04.679Z,45.52
2023-03-02T11:37:19.311Z,45.67
2023-03-02T11:41:30.086Z,43.64
2023-03-02T11:45:38.256Z,43.85
2023-03-02T11:49:45.394Z,42.52
2023-03-02T11:53:53.424Z,42.82
2023-03-02T12:02:15.142Z,43.67
2023-03-02T12:06:38.691Z,44.88
2023-03-02T12:10:46.956Z,41.97
2023-03-02T12:14:49.936Z,41.32
2023-03-02T12:18:55.254Z,42.46
2023-03-02T12:23:10.021Z,43.42
2023-03-02T12:27:27.233Z,43.38
2023-03-02T12:31:45.788Z,42.63
2023-03-02T12:35:57.984Z,41.59
2023-03-02T12:40:31.132Z,44.35
2023-03-02T12:44:45.081Z,46.89
2023-03-02T12:48:54.151Z,42.16
2023-03-02T12:53:04.824Z,41.44
2023-03-02T12:57:15.221Z,41.19
2023-03-02T13:01:23.674Z,41.81
2023-03-02T13:05:29.146Z,41.44
2023-03-02T13:09:34.410Z,40.86
2023-03-02T13:13:40.337Z,41.99
2023-03-02T13:17:43.982Z,41.89
2023-03-02T13:21:47.207Z,41.49
2023-03-02T13:25:54.203Z,41.09
2023-03-02T13:29:57.965Z,41.38
2023-03-02T13:34:01.597Z,41.37
2023-03-02T13:38:07.340Z,41.68
2023-03-02T13:42:36.906Z,43.70
2023-03-02T13:46:42.091Z,41.27
2023-03-02T13:50:54.976Z,43.10
2023-03-02T13:54:59.002Z,41.13
2023-03-02T13:59:04.308Z,41.63
2023-03-02T14:03:19.191Z,41.73
2023-03-02T14:07:22.226Z,40.19
2023-03-02T14:11:25.376Z,41.16
2023-03-02T14:15:30.294Z,40.97
2023-03-02T14:19:33.298Z,39.91
2023-03-02T14:23:36.697Z,39.20
2023-03-02T14:27:40.762Z,40.17
2023-03-02T14:31:45.305Z,40.25
2023-03-02T14:35:49.464Z,38.96
2023-03-02T14:39:55.657Z,40.44
2023-03-02T14:43:58.656Z,40.32
2023-03-02T14:48:03.464Z,40.18
2023-03-02T14:52:10.289Z,40.15
2023-03-02T14:56:13.754Z,39.52
2023-03-02T15:00:17.731Z,39.78
2023-03-02T15:04:22.539Z,38.46
2023-03-02T15:08:25.573Z,39.41
2023-03-02T15:12:29.228Z,39.58
2023-03-02T15:16:32.238Z,39.44
2023-03-02T15:20:37.277Z,40.40
2023-03-02T15:24:40.327Z,40.22
2023-03-02T15:28:46.075Z,40.20
2023-03-02T15:32:49.269Z,40.80
2023-03-02T15:36:54.049Z,40.68
2023-03-02T15:40:57.005Z,40.41
2023-03-02T15:45:00.632Z,40.36
2023-03-02T15:49:03.609Z,41.26
2023-03-02T15:53:08.475Z,41.56
2023-03-02T15:57:11.646Z,42.13
2023-03-02T16:01:17.042Z,41.70
2023-03-02T16:05:20.107Z,41.82
2023-03-02T16:09:26.237Z,42.43
2023-03-02T16:13:30.463Z,41.67
2023-03-02T16:17:33.712Z,42.26
2023-03-02T16:21:36.767Z,42.12
2023-03-02T16:25:44.002Z,42.09
2023-03-02T16:29:47.041Z,43.09
2023-03-02T16:33:53.239Z,43.04
2023-03-02T16:37:56.146Z,43.31
2023-03-02T16:42:01.430Z,43.90
2023-03-02T16:46:04.573Z,44.38
2023-03-02T16:50:09.502Z,44.12
2023-03-02T16:54:17.239Z,44.70
2023-03-02T16:58:22.776Z,44.49
2023-03-02T17:02:25.661Z,44.97
2023-03-02T17:06:30.114Z,45.40
2023-03-02T17:10:33.469Z,45.34
2023-03-02T17:14:38.638Z,46.20
2023-03-02T17:18:46.713Z,45.84
2023-03-02T17:22:51.512Z,46.17
2023-03-02T17:26:54.446Z,46.35
2023-03-02T17:31:03.442Z,46.09
2023-03-02T17:35:09.421Z,46.56
2023-03-02T17:39:13.033Z,46.93
2023-03-02T17:43:16.469Z,47.13
2023-03-02T17:47:21.563Z,47.79
2023-03-02T17:51:25.848Z,47.70
2023-03-02T17:55:29.802Z,48.21
2023-03-02T17:59:32.953Z,47.98
2023-03-02T18:03:40.339Z,48.54
2023-03-02T18:07:43.498Z,48.66
2023-03-02T18:11:47.175Z,48.64
2023-03-02T18:15:50.124Z,48.76
2023-03-02T18:19:54.800Z,49.49
2023-03-02T18:23:58.961Z,49.59
2023-03-02T18:28:02.889Z,49.63
2023-03-02T18:32:06.022Z,49.94
2023-03-02T18:36:12.201Z,50.25
2023-03-02T18:40:15.675Z,50.10
2023-03-02T18:44:20.693Z,50.72
2023-03-02T18:48:23.695Z,50.87
2023-03-02T18:52:28.471Z,50.83
2023-03-02T18:56:31.489Z,50.95
2023-03-02T19:00:35.766Z,50.74
2023-03-02T19:04:38.859Z,51.04
2023-03-02T19:08:44.087Z,50.44
2023-03-02T19:12:47.019Z,50.88
2023-03-02T19:16:50.271Z,50.97
2023-03-02T19:20:54.417Z,51.33
2023-03-02T19:24:59.028Z,51.11
2023-03-02T19:29:01.974Z,51.11
2023-03-02T19:33:07.894Z,51.78
2023-03-02T19:37:10.867Z,51.37
2023-03-02T19:41:19.222Z,51.77
2023-03-02T19:45:27.442Z,51.96
2023-03-02T19:49:30.935Z,52.01
2023-03-02T19:53:34.717Z,52.17
2023-03-02T19:57:43.178Z,52.51
2023-03-02T20:01:47.882Z,52.39
2023-03-02T20:05:51.617Z,52.39
2023-03-02T20:09:54.723Z,52.49
2023-03-02T20:14:02.720Z,52.41
2023-03-02T20:18:06.382Z,52.81
2023-03-02T20:22:11.704Z,53.20
2023-03-02T20:26:14.750Z,53.47
2023-03-02T20:30:24.824Z,53.37
2023-03-02T20:34:27.781Z,53.17
2023-03-02T20:38:34.016Z,53.22
2023-03-02T20:42:37.061Z,53.53
2023-03-02T20:46:44.392Z,53.88
2023-03-02T20:50:47.387Z,54.02
2023-03-02T20:54:51.219Z,53.87
2023-03-02T20:58:54.396Z,54.09
2023-03-02T21:02:59.508Z,53.80
2023-03-02T21:07:02.551Z,54.46
2023-03-02T21:15:28.322Z,54.29
2023-03-02T21:19:34.966Z,54.62
2023-03-02T21:23:38.217Z,54.69
2023-03-02T21:27:45.153Z,54.76
2023-03-02T21:31:48.250Z,54.64
2023-03-02T21:35:53.048Z,54.89
2023-03-02T21:39:55.975Z,54.49
2023-03-02T21:43:59.737Z,54.69
2023-03-02T21:48:03.110Z,54.66
2023-03-02T21:52:08.319Z,54.54
2023-03-02T21:56:20.751Z,54.97
2023-03-02T22:00:26.568Z,54.86
2023-03-02T22:04:29.736Z,54.61
2023-03-02T22:08:35.859Z,54.72
2023-03-02T22:12:38.840Z,54.76
2023-03-02T22:16:45.880Z,54.61
2023-03-02T22:20:50.869Z,54.64
2023-03-02T22:24:55.877Z,55.42
2023-03-02T22:29:09.176Z,55.05
2023-03-02T22:33:21.371Z,55.54
2023-03-02T22:37:26.683Z,56.01
2023-03-02T22:41:31.225Z,55.95
2023-03-02T22:45:34.108Z,55.70
2023-03-02T22:49:58.000Z,56.23
2023-03-02T22:54:01.931Z,55.78
2023-03-02T22:58:28.667Z,56.05
2023-03-02T23:02:31.833Z,56.42
2023-03-02T23:06:40.251Z,56.50
2023-03-02T23:10:43.605Z,56.69
2023-03-02T23:14:49.925Z,56.62
2023-03-02T23:18:55.073Z,56.28
2023-03-02T23:22:58.809Z,56.67
2023-03-02T23:27:02.049Z,56.31
2023-03-02T23:31:07.871Z,55.97
2023-03-02T23:35:11.376Z,55.99
2023-03-02T23:39:14.761Z,55.26
2023-03-02T23:43:17.629Z,55.31
2023-03-02T23:47:22.678Z,55.45
2023-03-02T23:51:26.820Z,55.94
2023-03-02T23:55:30.800Z,56.06
